Gold Point, Nevada
Current Conditions -  °F | °C
As of 3:56 PM on Wednesday 26 Nov 2014 (Local Time) from KTPH Reporting Station
Clear Clear  
Wind Chill: 66°   Ceiling: Unl
Heat Index: 66°   Visibility: 10mi
Dew Point: 18°   Wind: 0mph
Humidity: 16%   Direction: NA
Pressure: 30.39"   Gusts: NA
Location:  37.7558°N, 117.435°W
Report Text: KTPH 262356Z AUTO 00000KT 10SM CLR 19/M08 A3039 RMK AO2 SLP271 T01891078 10194 20072 55008
Loading
Personal Weather Stations






























Interactive Weather Map New forecast layout! Learn more

10-Day Weather Forecast

Advertisements
Track Severe Weather on mobile